createdAt,value
2023-01-12T00:00:12.353Z,7.1
2023-01-12T00:03:11.857Z,7.1
2023-01-12T00:06:11.933Z,7.1
2023-01-12T00:09:11.956Z,7
2023-01-12T00:12:11.986Z,7.1
2023-01-12T00:15:11.952Z,7.1
2023-01-12T00:18:11.983Z,7.1
2023-01-12T00:21:11.932Z,7.2
2023-01-12T00:24:11.866Z,7.1
2023-01-12T00:27:11.951Z,7.1
2023-01-12T00:30:11.924Z,7
2023-01-12T00:33:11.894Z,7
2023-01-12T00:36:11.930Z,6.9
2023-01-12T00:39:11.962Z,6.9
2023-01-12T00:42:12.024Z,6.9
2023-01-12T00:45:11.872Z,6.9
2023-01-12T00:48:11.899Z,6.9
2023-01-12T00:51:11.955Z,6.9
2023-01-12T00:54:11.910Z,6.9
2023-01-12T00:57:11.872Z,7
2023-01-12T01:00:12.438Z,7
2023-01-12T01:03:12.142Z,7
2023-01-12T01:06:11.908Z,7.1
2023-01-12T01:09:11.949Z,7.2
2023-01-12T01:12:12.073Z,7.2
2023-01-12T01:15:12.028Z,7.2
2023-01-12T01:18:12.077Z,7.1
2023-01-12T01:21:11.955Z,7.1
2023-01-12T01:24:11.934Z,7.1
2023-01-12T01:27:11.955Z,7.2
2023-01-12T01:30:12.006Z,7.2
2023-01-12T01:33:12.013Z,7.2
2023-01-12T01:36:11.856Z,7.1
2023-01-12T01:39:11.929Z,7
2023-01-12T01:42:11.952Z,6.9
2023-01-12T01:45:12.001Z,6.9
2023-01-12T01:48:11.988Z,7
2023-01-12T01:51:11.971Z,7
2023-01-12T01:54:11.997Z,7
2023-01-12T01:57:11.915Z,7.1
2023-01-12T02:00:12.086Z,7.2
2023-01-12T02:03:12.583Z,7.4
2023-01-12T02:06:11.896Z,7.4
2023-01-12T02:09:12.005Z,7.4
2023-01-12T02:12:11.992Z,7.4
2023-01-12T02:15:12.048Z,7.5
2023-01-12T02:18:11.916Z,7.5
2023-01-12T02:21:11.995Z,7.5
2023-01-12T02:24:11.894Z,7.5
2023-01-12T02:27:12.015Z,7.5
2023-01-12T02:30:12.041Z,7.6
2023-01-12T02:33:11.901Z,7.6
2023-01-12T02:36:11.907Z,7.7
2023-01-12T02:39:11.842Z,7.7
2023-01-12T02:42:11.915Z,7.7
2023-01-12T02:45:12.020Z,7.9
2023-01-12T02:48:12.076Z,7.9
2023-01-12T02:51:12.014Z,7.9
2023-01-12T02:54:11.903Z,7.9
2023-01-12T02:57:11.870Z,7.9
2023-01-12T03:00:11.953Z,7.9
2023-01-12T03:03:12.427Z,7.9
2023-01-12T03:06:12.021Z,7.9
2023-01-12T03:09:11.983Z,7.9
2023-01-12T03:12:12.061Z,7.9
2023-01-12T03:15:12.116Z,7.9
2023-01-12T03:18:11.911Z,7.9
2023-01-12T03:21:12.007Z,7.9
2023-01-12T03:24:11.954Z,7.9
2023-01-12T03:27:12.074Z,7.7
2023-01-12T03:30:11.970Z,7.7
2023-01-12T03:33:11.975Z,7.7
2023-01-12T03:36:11.932Z,7.7
2023-01-12T03:39:12.072Z,7.7
2023-01-12T03:42:12.042Z,7.9
2023-01-12T03:45:11.903Z,7.9
2023-01-12T03:48:11.941Z,7.9
2023-01-12T03:51:11.911Z,8
2023-01-12T03:54:11.911Z,8
2023-01-12T03:57:11.928Z,8
2023-01-12T04:00:12.010Z,8
2023-01-12T04:03:12.294Z,8
2023-01-12T04:06:11.995Z,8.1
2023-01-12T04:09:12.000Z,8
2023-01-12T04:12:12.080Z,8
2023-01-12T04:15:11.976Z,8
2023-01-12T04:18:11.894Z,8
2023-01-12T04:21:11.899Z,8.1
2023-01-12T04:24:12.006Z,8.1
2023-01-12T04:27:11.920Z,8.1
2023-01-12T04:30:12.002Z,8.1
2023-01-12T04:33:11.982Z,8.3
2023-01-12T04:36:11.916Z,8.1
2023-01-12T04:39:11.959Z,8.1
2023-01-12T04:42:12.080Z,8.1
2023-01-12T04:45:12.059Z,8.1
2023-01-12T04:48:11.965Z,8.1
2023-01-12T04:51:11.915Z,8.1
2023-01-12T04:54:11.968Z,8.1
2023-01-12T04:57:11.987Z,8.1
2023-01-12T05:00:12.099Z,8.1
2023-01-12T05:03:11.931Z,8.1
2023-01-12T05:06:12.042Z,8.1
2023-01-12T05:09:12.203Z,8.1
2023-01-12T05:12:11.953Z,8.1
2023-01-12T05:15:11.952Z,8.1
2023-01-12T05:18:12.039Z,8.1
2023-01-12T05:21:11.967Z,8.1
2023-01-12T05:24:11.915Z,8.1
2023-01-12T05:27:11.995Z,8
2023-01-12T05:30:11.940Z,8
2023-01-12T05:33:12.132Z,8
2023-01-12T05:36:12.112Z,8
2023-01-12T05:39:11.934Z,8.1
2023-01-12T05:42:11.869Z,8.1
2023-01-12T05:45:12.009Z,8
2023-01-12T05:48:11.884Z,8
2023-01-12T05:51:14.325Z,8
2023-01-12T05:54:11.932Z,8
2023-01-12T05:57:11.928Z,8
2023-01-12T06:00:12.021Z,7.9
2023-01-12T06:03:12.050Z,7.9
2023-01-12T06:06:12.596Z,7.9
2023-01-12T06:09:12.063Z,7.9
2023-01-12T06:12:14.506Z,7.9
2023-01-12T06:15:12.046Z,7.9
2023-01-12T06:18:11.916Z,8
2023-01-12T06:21:11.987Z,8
2023-01-12T06:24:11.900Z,8
2023-01-12T06:27:11.959Z,8
2023-01-12T06:30:11.896Z,7.9
2023-01-12T06:33:11.991Z,8
2023-01-12T06:36:12.109Z,8
2023-01-12T06:39:11.962Z,8.1
2023-01-12T06:42:11.924Z,8.1
2023-01-12T06:45:11.938Z,8.1
2023-01-12T06:48:12.014Z,8.3
2023-01-12T06:51:11.999Z,8.4
2023-01-12T06:54:11.910Z,8.4
2023-01-12T06:57:11.926Z,8.4
2023-01-12T07:00:11.983Z,8.4
2023-01-12T07:03:12.006Z,8.5
2023-01-12T07:06:11.999Z,8.5
2023-01-12T07:09:11.896Z,8.5
2023-01-12T07:12:11.865Z,8.5
2023-01-12T07:15:12.067Z,8.6
2023-01-12T07:18:12.042Z,8.6
2023-01-12T07:21:11.995Z,8.6
2023-01-12T07:24:11.988Z,8.6
2023-01-12T07:27:12.019Z,8.6
2023-01-12T07:30:12.200Z,8.6
2023-01-12T07:33:12.017Z,8.6
2023-01-12T07:36:12.067Z,8.6
2023-01-12T07:39:11.952Z,8.6
2023-01-12T07:42:12.053Z,8.6
2023-01-12T07:45:12.067Z,8.8
2023-01-12T07:48:12.099Z,8.9
2023-01-12T07:51:12.019Z,9
2023-01-12T07:54:12.080Z,9
2023-01-12T07:57:12.000Z,9.1
2023-01-12T08:00:12.236Z,9.1
2023-01-12T08:03:11.993Z,9.3
2023-01-12T08:06:12.085Z,9.4
2023-01-12T08:09:12.065Z,9.4
2023-01-12T08:12:12.060Z,9.5
2023-01-12T08:15:12.094Z,9.8
2023-01-12T08:18:14.741Z,9.8
2023-01-12T08:21:11.943Z,9.6
2023-01-12T08:24:12.025Z,9.6
2023-01-12T08:27:12.142Z,9.4
2023-01-12T08:30:12.102Z,9.3
2023-01-12T08:33:12.369Z,9.3
2023-01-12T08:39:12.041Z,9.5
2023-01-12T08:42:12.136Z,9.6
2023-01-12T08:45:12.115Z,9.8
2023-01-12T08:48:11.988Z,9.9
2023-01-12T08:51:11.990Z,9.9
2023-01-12T08:54:12.103Z,9.9
2023-01-12T08:57:12.064Z,9.9
2023-01-12T09:00:12.110Z,10.1
2023-01-12T09:03:12.035Z,10.5
2023-01-12T09:06:12.047Z,10.8
2023-01-12T09:09:12.037Z,11
2023-01-12T09:12:12.093Z,11.3
2023-01-12T09:15:12.104Z,11.4
2023-01-12T09:18:11.976Z,11.5
2023-01-12T09:21:11.997Z,11.8
2023-01-12T09:24:12.083Z,12
2023-01-12T09:27:12.100Z,12
2023-01-12T09:30:12.252Z,12.1
2023-01-12T09:33:12.075Z,12.2
2023-01-12T09:36:11.967Z,12.2
2023-01-12T09:39:29.392Z,12.2
2023-01-12T09:42:12.057Z,13.6
2023-01-12T09:45:12.092Z,15.3
2023-01-12T09:48:12.036Z,15.1
2023-01-12T09:51:12.076Z,16.5
2023-01-12T09:54:12.053Z,17.9
2023-01-12T09:57:28.984Z,18.9
2023-01-12T10:00:12.102Z,17.4
2023-01-12T10:03:13.016Z,16.3
2023-01-12T10:06:12.073Z,15.8
2023-01-12T10:09:12.003Z,18.3
2023-01-12T10:12:12.032Z,18.9
2023-01-12T10:15:12.008Z,16.5
2023-01-12T10:18:12.132Z,16.3
2023-01-12T10:21:12.046Z,17.5
2023-01-12T10:24:11.975Z,17.2
2023-01-12T10:27:12.104Z,16.5
2023-01-12T10:30:12.089Z,15
2023-01-12T10:33:12.019Z,14.5
2023-01-12T10:36:12.020Z,14.4
2023-01-12T10:39:12.227Z,14.7
2023-01-12T10:42:11.985Z,14.5
2023-01-12T10:45:12.384Z,14.4
2023-01-12T10:48:12.142Z,14.5
2023-01-12T10:51:11.978Z,14.4
2023-01-12T10:54:12.018Z,14.4
2023-01-12T10:57:11.996Z,14.1
2023-01-12T11:00:12.113Z,14
2023-01-12T11:03:12.329Z,13.9
2023-01-12T11:06:11.989Z,13.8
2023-01-12T11:09:12.011Z,13.9
2023-01-12T11:12:11.926Z,13.9
2023-01-12T11:15:11.977Z,13.9
2023-01-12T11:18:11.972Z,13.8
2023-01-12T11:21:11.931Z,14.1
2023-01-12T11:24:12.072Z,14.1
2023-01-12T11:27:12.050Z,13.8
2023-01-12T11:30:12.110Z,13.5
2023-01-12T11:33:12.189Z,13.8
2023-01-12T11:36:12.004Z,13.9
2023-01-12T11:39:12.091Z,13.8
2023-01-12T11:42:12.045Z,13.9
2023-01-12T11:45:11.997Z,13.5
2023-01-12T11:48:12.016Z,13.9
2023-01-12T11:51:11.979Z,14.3
2023-01-12T11:54:12.028Z,15.1
2023-01-12T11:57:11.959Z,15.5
2023-01-12T12:00:12.347Z,15.5
2023-01-12T12:03:12.001Z,15.8
2023-01-12T12:06:12.010Z,15.6
2023-01-12T12:09:11.870Z,15.5
2023-01-12T12:12:12.023Z,15.5
2023-01-12T12:15:11.965Z,15.5
2023-01-12T12:18:11.972Z,15.8
2023-01-12T12:21:11.938Z,16.5
2023-01-12T12:24:11.943Z,16.9
2023-01-12T12:27:11.922Z,16.5
2023-01-12T12:30:12.198Z,16.3
2023-01-12T12:33:12.044Z,15.6
2023-01-12T12:37:16.551Z,15.1
2023-01-12T12:39:12.027Z,15.4
2023-01-12T12:42:12.009Z,15.4
2023-01-12T12:45:11.926Z,15.5
2023-01-12T12:48:12.014Z,15.5
2023-01-12T12:51:12.013Z,15.3
2023-01-12T12:54:12.016Z,14.7
2023-01-12T12:57:11.996Z,14.4
2023-01-12T13:00:12.823Z,13.9
2023-01-12T13:03:12.371Z,13.5
2023-01-12T13:06:12.026Z,13
2023-01-12T13:09:12.103Z,12.8
2023-01-12T13:12:11.978Z,12.5
2023-01-12T13:15:12.069Z,12.5
2023-01-12T13:18:12.023Z,12.6
2023-01-12T13:21:11.923Z,12.8
2023-01-12T13:24:12.059Z,12.9
2023-01-12T13:27:12.038Z,12.8
2023-01-12T13:30:12.087Z,12.9
2023-01-12T13:33:11.945Z,12.8
2023-01-12T13:36:14.416Z,12.5
2023-01-12T13:39:12.010Z,12.4
2023-01-12T13:42:13.822Z,12.1
2023-01-12T13:45:12.098Z,12
2023-01-12T13:48:11.987Z,12
2023-01-12T13:51:12.051Z,12.1
2023-01-12T13:54:12.334Z,12.2
2023-01-12T13:57:12.127Z,12.2
2023-01-12T14:00:12.314Z,12.2
2023-01-12T14:03:12.403Z,12.1
2023-01-12T14:06:12.019Z,11.9
2023-01-12T14:09:12.064Z,11.8
2023-01-12T14:12:12.114Z,11.5
2023-01-12T14:15:12.073Z,11.4
2023-01-12T14:18:12.179Z,11.3
2023-01-12T14:21:12.163Z,11.1
2023-01-12T14:24:12.185Z,11
2023-01-12T14:27:12.121Z,11
2023-01-12T14:30:11.958Z,11
2023-01-12T14:33:14.109Z,11
2023-01-12T14:36:11.991Z,11
2023-01-12T14:39:12.257Z,11
2023-01-12T14:42:12.147Z,11
2023-01-12T14:45:12.121Z,10.9
2023-01-12T14:48:11.993Z,10.8
2023-01-12T14:51:12.026Z,10.6
2023-01-12T14:54:11.957Z,10.5
2023-01-12T14:57:12.119Z,10.4
2023-01-12T15:00:12.142Z,10.3
2023-01-12T15:03:12.045Z,10.1
2023-01-12T15:06:11.979Z,10.1
2023-01-12T15:09:12.029Z,10
2023-01-12T15:12:11.991Z,9.9
2023-01-12T15:15:11.999Z,9.9
2023-01-12T15:18:12.027Z,9.9
2023-01-12T15:21:12.223Z,9.8
2023-01-12T15:24:12.058Z,9.8
2023-01-12T15:27:18.042Z,9.8
2023-01-12T15:30:12.105Z,9.6
2023-01-12T15:33:11.983Z,9.6
2023-01-12T15:36:11.924Z,9.6
2023-01-12T15:39:11.929Z,9.6
2023-01-12T15:42:11.932Z,9.5
2023-01-12T15:45:12.012Z,9.5
2023-01-12T15:48:12.023Z,9.5
2023-01-12T15:51:12.005Z,9.5
2023-01-12T15:54:11.928Z,9.5
2023-01-12T15:57:11.959Z,9.5
2023-01-12T16:00:12.111Z,9.5
2023-01-12T16:03:24.198Z,9.5
2023-01-12T16:06:12.073Z,9.5
2023-01-12T16:09:12.098Z,9.5
2023-01-12T16:12:12.027Z,9.5
2023-01-12T16:15:11.978Z,9.5
2023-01-12T16:18:12.087Z,9.5
2023-01-12T16:21:11.981Z,9.5
2023-01-12T16:24:12.539Z,9.5
2023-01-12T16:27:12.390Z,9.5
2023-01-12T16:30:12.498Z,9.5
2023-01-12T16:33:12.367Z,9.4
2023-01-12T16:36:12.047Z,9.5
2023-01-12T16:39:11.993Z,9.4
2023-01-12T16:42:11.903Z,9.5
2023-01-12T16:45:12.014Z,9.4
2023-01-12T16:48:12.033Z,9.4
2023-01-12T16:51:11.940Z,9.5
2023-01-12T16:54:12.238Z,9.4
2023-01-12T16:57:11.953Z,9.4
2023-01-12T17:00:12.502Z,9.4
2023-01-12T17:03:12.967Z,9.4
2023-01-12T17:06:12.308Z,9.4
2023-01-12T17:09:12.560Z,9.4
2023-01-12T17:12:12.843Z,9.5
2023-01-12T17:15:13.061Z,9.4
2023-01-12T17:18:13.163Z,9.5
2023-01-12T17:21:12.523Z,9.5
2023-01-12T17:24:12.241Z,9.5
2023-01-12T17:27:12.041Z,9.5
2023-01-12T17:30:12.492Z,9.5
2023-01-12T17:33:12.198Z,9.5
2023-01-12T17:36:12.287Z,9.5
2023-01-12T17:39:12.008Z,9.5
2023-01-12T17:42:12.193Z,9.4
2023-01-12T17:45:12.011Z,9.4
2023-01-12T17:48:12.098Z,9.3
2023-01-12T17:51:11.969Z,9.3
2023-01-12T17:54:12.091Z,9.3
2023-01-12T17:57:11.960Z,9.1
2023-01-12T18:00:12.512Z,9.3
2023-01-12T18:03:12.637Z,9.3
2023-01-12T18:06:33.317Z,9.3
2023-01-12T18:09:12.078Z,9.4
2023-01-12T18:12:11.940Z,9.4
2023-01-12T18:15:11.906Z,9.4
2023-01-12T18:18:12.055Z,9.4
2023-01-12T18:21:11.946Z,9.4
2023-01-12T18:24:12.000Z,9.4
2023-01-12T18:27:12.015Z,9.5
2023-01-12T18:30:12.035Z,9.4
2023-01-12T18:33:12.040Z,9.4
2023-01-12T18:36:12.116Z,9.4
2023-01-12T18:39:11.950Z,9.4
2023-01-12T18:42:12.023Z,9.4
2023-01-12T18:45:12.049Z,9.4
2023-01-12T18:48:12.045Z,9.4
2023-01-12T18:51:12.322Z,9.4
2023-01-12T18:54:12.006Z,9.4
2023-01-12T18:57:12.051Z,9.4
2023-01-12T19:00:12.021Z,9.4
2023-01-12T19:03:12.834Z,9.4
2023-01-12T19:06:12.026Z,9.4
2023-01-12T19:09:12.019Z,9.4
2023-01-12T19:12:12.004Z,9.4
2023-01-12T19:15:12.048Z,9.4
2023-01-12T19:18:11.998Z,9.4
2023-01-12T19:21:12.049Z,9.4
2023-01-12T19:24:12.051Z,9.4
2023-01-12T19:27:11.975Z,9.4
2023-01-12T19:30:11.973Z,9.4
2023-01-12T19:33:11.972Z,9.4
2023-01-12T19:36:11.975Z,9.4
2023-01-12T19:39:11.961Z,9.4
2023-01-12T19:42:11.976Z,9.4
2023-01-12T19:45:11.988Z,9.4
2023-01-12T19:48:11.978Z,9.4
2023-01-12T19:51:14.811Z,9.4
2023-01-12T19:54:11.964Z,9.4
2023-01-12T19:57:11.896Z,9.4
2023-01-12T20:00:12.055Z,9.4
2023-01-12T20:03:12.594Z,9.4
2023-01-12T20:06:11.907Z,9.4
2023-01-12T20:09:12.008Z,9.4
2023-01-12T20:12:11.989Z,9.4
2023-01-12T20:15:12.001Z,9.4
2023-01-12T20:18:15.147Z,9.4
2023-01-12T20:21:12.057Z,9.4
2023-01-12T20:24:12.073Z,9.4
2023-01-12T20:27:11.946Z,9.4
2023-01-12T20:30:11.955Z,9.4
2023-01-12T20:33:12.244Z,9.3
2023-01-12T20:36:12.003Z,9.3
2023-01-12T20:39:11.948Z,9.3
2023-01-12T20:42:12.063Z,9.3
2023-01-12T20:45:11.962Z,9.3
2023-01-12T20:48:14.814Z,9.3
2023-01-12T20:51:12.022Z,9.3
2023-01-12T20:54:12.258Z,9.3
2023-01-12T20:57:11.960Z,9.3
2023-01-12T21:00:12.147Z,9.3
2023-01-12T21:03:12.509Z,9.3
2023-01-12T21:06:12.087Z,9.3
2023-01-12T21:09:12.012Z,9.3
2023-01-12T21:12:11.933Z,9.3
2023-01-12T21:15:11.948Z,9.3
2023-01-12T21:18:11.930Z,9.3
2023-01-12T21:21:12.093Z,9.3
2023-01-12T21:24:12.020Z,9.3
2023-01-12T21:27:12.087Z,9.1
2023-01-12T21:30:12.028Z,9.3
2023-01-12T21:33:11.985Z,9.1
2023-01-12T21:36:11.912Z,9.1
2023-01-12T21:39:12.098Z,9.3
2023-01-12T21:42:12.087Z,9.3
2023-01-12T21:45:12.281Z,9.3
2023-01-12T21:48:12.025Z,9.3
2023-01-12T21:51:12.042Z,9.3
2023-01-12T21:54:11.941Z,9.3
2023-01-12T21:57:11.910Z,9.3
2023-01-12T22:00:12.268Z,9.3
2023-01-12T22:03:11.964Z,9.3
2023-01-12T22:06:12.077Z,9.3
2023-01-12T22:09:11.982Z,9.1
2023-01-12T22:12:11.990Z,9.1
2023-01-12T22:15:12.018Z,9.1
2023-01-12T22:18:12.012Z,9.1
2023-01-12T22:21:11.977Z,9.1
2023-01-12T22:24:12.047Z,9.1
2023-01-12T22:27:12.239Z,9.1
2023-01-12T22:30:12.055Z,9.1
2023-01-12T22:33:11.983Z,9.1
2023-01-12T22:36:12.006Z,9
2023-01-12T22:39:12.151Z,9.1
2023-01-12T22:42:11.911Z,9
2023-01-12T22:45:12.000Z,9
2023-01-12T22:48:12.067Z,9
2023-01-12T22:51:12.177Z,9
2023-01-12T22:54:11.985Z,9
2023-01-12T22:57:11.899Z,9
2023-01-12T23:00:13.220Z,9.1
2023-01-12T23:03:14.039Z,9.1
2023-01-12T23:06:12.330Z,9.1
2023-01-12T23:09:12.267Z,9.1
2023-01-12T23:12:12.194Z,9.3
2023-01-12T23:15:12.182Z,9.3
2023-01-12T23:18:12.276Z,9.3
2023-01-12T23:21:12.217Z,9.3
2023-01-12T23:24:12.454Z,9.3
2023-01-12T23:27:12.229Z,9.3
2023-01-12T23:30:12.232Z,9.3
2023-01-12T23:33:12.325Z,9.3
2023-01-12T23:36:12.373Z,9.3
2023-01-12T23:39:12.252Z,9.3
2023-01-12T23:42:12.263Z,9.3
2023-01-12T23:45:12.237Z,9.4
2023-01-12T23:48:12.765Z,9.4
2023-01-12T23:51:12.295Z,9.4
2023-01-12T23:54:12.335Z,9.4
2023-01-12T23:57:12.295Z,9.4
